PWSweather.com
Personal Weather Stations
Station Observations
KMAMEDFI2
Medfield, MA 02052

Medfield, MA 02052

Lat: 42.1900822, Lon: -71.3296889

Elevation: 138

Station Type: Rainwise WS MK-III

http://www.medfieldweather.com

High Low Average
Temperature 48.2°F9.0°C 31.9°F-0.1°C 39.1°F3.9°C
Dew Point 37.8°F3.2°C 22.9°F-5.1°C 31.9°F-0.1°C
Winds 9.2 mph 14.8 kmh Calm Calm 3.0 mph SW4.8 kmh SW
Wind Gusts 16.1 mph25.9 kmh -- 5.0 mph8.0 kmh
Humidity 96% 51% 77%
Pressure 30.05 in1017.6 mb 29.62 in1003.0 mb -
Precipitation 0.02 in0.5 mm - -
Hour Temp Dew Point Humidity Winds Wind Gusts Pressure Precip Precip Rate Daily Precip Total
12:00 AM 38.4°F3.6°C 37.4°F3.0°C 96% Calm Calm -- 29.64 in1003.7 mb - 0.00 in0.0 mm 0.00 in0.0 mm
12:10 AM 38.5°F3.6°C 37.5°F3.1°C 96% 1.2 mph SSW1.9 kmh SSW 1.2 mph1.9 kmh 29.65 in1004.1 mb - 0.00 in0.0 mm 0.00 in0.0 mm
12:20 AM 38.6°F3.7°C 37.5°F3.1°C 96% 2.3 mph WSW3.7 kmh WSW 3.5 mph5.6 kmh 29.65 in1004.1 mb - 0.00 in0.0 mm 0.00 in0.0 mm
12:30 AM 38.6°F3.7°C 37.6°F3.1°C 96% 2.3 mph WSW3.7 kmh WSW 2.3 mph3.7 kmh 29.66 in1004.4 mb - 0.00 in0.0 mm 0.00 in0.0 mm
12:40 AM 38.7°F3.7°C 37.6°F3.1°C 96% Calm Calm 2.3 mph3.7 kmh 29.64 in1003.7 mb - 0.00 in0.0 mm 0.00 in0.0 mm
12:50 AM 38.7°F3.7°C 37.6°F3.1°C 96% 1.2 mph SSW1.9 kmh SSW -- 29.64 in1003.7 mb - 0.00 in0.0 mm 0.00 in0.0 mm
01:00 AM 38.7°F3.7°C 37.6°F3.1°C 96% Calm Calm -- 29.63 in1003.4 mb - 0.00 in0.0 mm 0.00 in0.0 mm
01:10 AM 38.7°F3.7°C 37.7°F3.2°C 96% Calm Calm 1.2 mph1.9 kmh 29.63 in1003.4 mb - 0.00 in0.0 mm 0.00 in0.0 mm
01:20 AM 38.8°F3.8°C 37.8°F3.2°C 96% 3.5 mph W5.6 kmh W 3.5 mph5.6 kmh 29.64 in1003.7 mb - 0.00 in0.0 mm 0.00 in0.0 mm
01:30 AM 38.8°F3.8°C 37.8°F3.2°C 96% Calm Calm 1.2 mph1.9 kmh 29.64 in1003.7 mb - 0.00 in0.0 mm 0.00 in0.0 mm
01:40 AM 38.8°F3.8°C 37.8°F3.2°C 96% 1.2 mph SW1.9 kmh SW 1.2 mph1.9 kmh 29.64 in1003.7 mb - 0.00 in0.0 mm 0.00 in0.0 mm
01:50 AM 38.8°F3.8°C 37.8°F3.2°C 96% 1.2 mph E1.9 kmh E 1.2 mph1.9 kmh 29.64 in1003.7 mb - 0.00 in0.0 mm 0.00 in0.0 mm
02:00 AM 38.6°F3.7°C 37.5°F3.1°C 96% Calm Calm -- 29.64 in1003.7 mb - 0.00 in0.0 mm 0.00 in0.0 mm
02:10 AM 38.0°F3.3°C 36.7°F2.6°C 95% 2.3 mph S3.7 kmh S 2.3 mph3.7 kmh 29.64 in1003.7 mb - 0.00 in0.0 mm 0.00 in0.0 mm
02:20 AM 37.7°F3.2°C 36.4°F2.4°C 95% 2.3 mph S3.7 kmh S 2.3 mph3.7 kmh 29.64 in1003.7 mb - 0.00 in0.0 mm 0.00 in0.0 mm
02:30 AM 37.3°F2.9°C 36.0°F2.2°C 95% 1.2 mph SW1.9 kmh SW 2.3 mph3.7 kmh 29.64 in1003.7 mb - 0.00 in0.0 mm 0.00 in0.0 mm
02:40 AM 37.2°F2.9°C 35.9°F2.2°C 95% 2.3 mph W3.7 kmh W 2.3 mph3.7 kmh 29.64 in1003.7 mb - 0.00 in0.0 mm 0.00 in0.0 mm
02:50 AM 36.8°F2.7°C 35.5°F1.9°C 95% Calm Calm 2.3 mph3.7 kmh 29.64 in1003.7 mb - 0.00 in0.0 mm 0.00 in0.0 mm
03:00 AM 36.4°F2.4°C 35.1°F1.7°C 95% 1.2 mph SW1.9 kmh SW 2.3 mph3.7 kmh 29.64 in1003.7 mb - 0.00 in0.0 mm 0.00 in0.0 mm
03:20 AM 35.7°F2.1°C 34.5°F1.4°C 95% Calm Calm -- 29.63 in1003.4 mb - 0.00 in0.0 mm 0.00 in0.0 mm
03:30 AM 35.8°F2.1°C 34.6°F1.4°C 95% Calm Calm 1.2 mph1.9 kmh 29.62 in1003.0 mb - 0.00 in0.0 mm 0.00 in0.0 mm
03:40 AM 35.9°F2.2°C 34.6°F1.4°C 95% 1.2 mph SE1.9 kmh SE 2.3 mph3.7 kmh 29.63 in1003.4 mb - 0.00 in0.0 mm 0.00 in0.0 mm
03:50 AM 35.9°F2.2°C 34.6°F1.4°C 95% Calm Calm 2.3 mph3.7 kmh 29.63 in1003.4 mb - 0.00 in0.0 mm 0.00 in0.0 mm
04:00 AM 35.6°F2.0°C 34.3°F1.3°C 95% 1.2 mph WNW1.9 kmh WNW 2.3 mph3.7 kmh 29.63 in1003.4 mb - 0.00 in0.0 mm 0.00 in0.0 mm
04:10 AM 35.5°F1.9°C 34.2°F1.2°C 95% 1.2 mph SSW1.9 kmh SSW 1.2 mph1.9 kmh 29.63 in1003.4 mb - 0.00 in0.0 mm 0.00 in0.0 mm
04:20 AM 35.8°F2.1°C 34.5°F1.4°C 95% 2.3 mph W3.7 kmh W 3.5 mph5.6 kmh 29.63 in1003.4 mb - 0.00 in0.0 mm 0.00 in0.0 mm
04:30 AM 35.9°F2.2°C 34.6°F1.4°C 95% 1.2 mph W1.9 kmh W 2.3 mph3.7 kmh 29.64 in1003.7 mb - 0.00 in0.0 mm 0.00 in0.0 mm
04:40 AM 36.0°F2.2°C 34.7°F1.5°C 95% 2.3 mph W3.7 kmh W 2.3 mph3.7 kmh 29.64 in1003.7 mb - 0.00 in0.0 mm 0.00 in0.0 mm
04:50 AM 36.1°F2.3°C 34.8°F1.6°C 95% Calm Calm -- 29.64 in1003.7 mb - 0.00 in0.0 mm 0.00 in0.0 mm
05:00 AM 36.0°F2.2°C 34.7°F1.5°C 95% 2.3 mph E3.7 kmh E 2.3 mph3.7 kmh 29.66 in1004.4 mb - 0.00 in0.0 mm 0.00 in0.0 mm
05:10 AM 35.7°F2.1°C 34.4°F1.3°C 95% Calm Calm -- 29.66 in1004.4 mb - 0.00 in0.0 mm 0.00 in0.0 mm
05:20 AM 35.8°F2.1°C 34.5°F1.4°C 95% Calm Calm -- 29.67 in1004.7 mb - 0.00 in0.0 mm 0.00 in0.0 mm
05:30 AM 35.8°F2.1°C 34.5°F1.4°C 95% Calm Calm -- 29.68 in1005.1 mb - 0.00 in0.0 mm 0.00 in0.0 mm
05:40 AM 36.0°F2.2°C 34.7°F1.5°C 95% Calm Calm -- 29.69 in1005.4 mb - 0.00 in0.0 mm 0.00 in0.0 mm
05:50 AM 36.5°F2.5°C 35.2°F1.8°C 95% Calm Calm -- 29.68 in1005.1 mb - 0.00 in0.0 mm 0.00 in0.0 mm
06:00 AM 36.8°F2.7°C 35.5°F1.9°C 95% Calm Calm -- 29.69 in1005.4 mb - 0.00 in0.0 mm 0.00 in0.0 mm
06:10 AM 37.0°F2.8°C 35.7°F2.1°C 95% Calm Calm -- 29.70 in1005.8 mb - 0.00 in0.0 mm 0.00 in0.0 mm
06:20 AM 37.4°F3.0°C 36.1°F2.3°C 95% 2.3 mph N3.7 kmh N 2.3 mph3.7 kmh 29.70 in1005.8 mb - 0.00 in0.0 mm 0.00 in0.0 mm
06:30 AM 37.5°F3.1°C 36.2°F2.3°C 95% 1.2 mph NE1.9 kmh NE 2.3 mph3.7 kmh 29.71 in1006.1 mb - 0.00 in0.0 mm 0.00 in0.0 mm
06:40 AM 37.2°F2.9°C 35.9°F2.2°C 95% Calm Calm 2.3 mph3.7 kmh 29.72 in1006.4 mb - 0.01 in0.3 mm 0.01 in0.3 mm
06:50 AM 36.9°F2.7°C 35.6°F2.0°C 95% 2.3 mph WNW3.7 kmh WNW 2.3 mph3.7 kmh 29.73 in1006.8 mb - 0.01 in0.3 mm 0.01 in0.3 mm
07:00 AM 36.8°F2.7°C 35.5°F1.9°C 95% 2.3 mph NNW3.7 kmh NNW 2.3 mph3.7 kmh 29.73 in1006.8 mb - 0.01 in0.3 mm 0.01 in0.3 mm
07:10 AM 37.0°F2.8°C 35.7°F2.1°C 95% 1.2 mph ESE1.9 kmh ESE 2.3 mph3.7 kmh 29.73 in1006.8 mb - 0.01 in0.3 mm 0.01 in0.3 mm
07:20 AM 37.2°F2.9°C 35.9°F2.2°C 95% 1.2 mph ENE1.9 kmh ENE 2.3 mph3.7 kmh 29.74 in1007.1 mb - 0.01 in0.3 mm 0.01 in0.3 mm
07:30 AM 36.9°F2.7°C 35.6°F2.0°C 95% 2.3 mph NNW3.7 kmh NNW 2.3 mph3.7 kmh 29.74 in1007.1 mb - 0.02 in0.5 mm 0.02 in0.5 mm
07:40 AM 37.4°F3.0°C 36.1°F2.3°C 95% 4.6 mph NNE7.4 kmh NNE 8.1 mph13.0 kmh 29.74 in1007.1 mb - 0.02 in0.5 mm 0.02 in0.5 mm
07:50 AM 37.8°F3.2°C 36.5°F2.5°C 95% 2.3 mph NNW3.7 kmh NNW 5.8 mph9.3 kmh 29.75 in1007.5 mb - 0.01 in0.3 mm 0.02 in0.5 mm
08:00 AM 37.2°F2.9°C 35.9°F2.2°C 95% 3.5 mph NW5.6 kmh NW 8.1 mph13.0 kmh 29.76 in1007.8 mb - 0.01 in0.3 mm 0.02 in0.5 mm
08:10 AM 37.0°F2.8°C 35.7°F2.1°C 95% 1.2 mph S1.9 kmh S 2.3 mph3.7 kmh 29.76 in1007.8 mb - 0.01 in0.3 mm 0.02 in0.5 mm
08:20 AM 37.0°F2.8°C 35.7°F2.1°C 95% 1.2 mph WSW1.9 kmh WSW 2.3 mph3.7 kmh 29.76 in1007.8 mb - 0.01 in0.3 mm 0.02 in0.5 mm
08:30 AM 37.2°F2.9°C 35.9°F2.2°C 95% 2.3 mph SW3.7 kmh SW 2.3 mph3.7 kmh 29.76 in1007.8 mb - 0.00 in0.0 mm 0.02 in0.5 mm
08:40 AM 37.2°F2.9°C 35.9°F2.2°C 95% 3.5 mph SW5.6 kmh SW 3.5 mph5.6 kmh 29.76 in1007.8 mb - 0.00 in0.0 mm 0.02 in0.5 mm
08:50 AM 37.4°F3.0°C 36.1°F2.3°C 95% 2.3 mph NW3.7 kmh NW 2.3 mph3.7 kmh 29.77 in1008.1 mb - 0.00 in0.0 mm 0.02 in0.5 mm
09:00 AM 37.6°F3.1°C 36.3°F2.4°C 95% 1.2 mph N1.9 kmh N 1.2 mph1.9 kmh 29.77 in1008.1 mb - 0.00 in0.0 mm 0.02 in0.5 mm
09:10 AM 37.6°F3.1°C 36.3°F2.4°C 95% 3.5 mph NW5.6 kmh NW 2.3 mph3.7 kmh 29.77 in1008.1 mb - 0.00 in0.0 mm 0.02 in0.5 mm
09:20 AM 37.9°F3.3°C 36.6°F2.6°C 95% 2.3 mph WNW3.7 kmh WNW 2.3 mph3.7 kmh 29.77 in1008.1 mb - 0.00 in0.0 mm 0.02 in0.5 mm
09:30 AM 38.7°F3.7°C 37.3°F2.9°C 95% 2.3 mph NW3.7 kmh NW 2.3 mph3.7 kmh 29.78 in1008.5 mb - 0.00 in0.0 mm 0.02 in0.5 mm
09:40 AM 38.8°F3.8°C 36.9°F2.7°C 93% 2.3 mph WNW3.7 kmh WNW 3.5 mph5.6 kmh 29.78 in1008.5 mb - 0.00 in0.0 mm 0.02 in0.5 mm
09:50 AM 39.2°F4.0°C 36.7°F2.6°C 91% 1.2 mph NNW1.9 kmh NNW 2.3 mph3.7 kmh 29.78 in1008.5 mb - 0.00 in0.0 mm 0.02 in0.5 mm
10:00 AM 39.4°F4.1°C 36.1°F2.3°C 88% 3.5 mph WNW5.6 kmh WNW 2.3 mph3.7 kmh 29.78 in1008.5 mb - 0.00 in0.0 mm 0.02 in0.5 mm
10:10 AM 40.3°F4.6°C 36.1°F2.3°C 85% 3.5 mph NW5.6 kmh NW 3.5 mph5.6 kmh 29.78 in1008.5 mb - 0.00 in0.0 mm 0.02 in0.5 mm
10:20 AM 42.4°F5.8°C 34.3°F1.3°C 73% 5.8 mph WNW9.3 kmh WNW 9.2 mph14.8 kmh 29.79 in1008.8 mb - 0.00 in0.0 mm 0.02 in0.5 mm
10:30 AM 41.6°F5.3°C 33.9°F1.1°C 74% 3.5 mph SW5.6 kmh SW 11.5 mph18.5 kmh 29.79 in1008.8 mb - 0.00 in0.0 mm 0.02 in0.5 mm
10:40 AM 40.9°F4.9°C 33.9°F1.1°C 76% 3.5 mph SW5.6 kmh SW 5.8 mph9.3 kmh 29.80 in1009.1 mb - 0.00 in0.0 mm 0.02 in0.5 mm
10:50 AM 40.9°F4.9°C 33.9°F1.1°C 76% 6.9 mph NW11.1 kmh NW 8.1 mph13.0 kmh 29.80 in1009.1 mb - 0.00 in0.0 mm 0.02 in0.5 mm
11:00 AM 41.1°F5.1°C 34.1°F1.2°C 76% 2.3 mph NW3.7 kmh NW 5.8 mph9.3 kmh 29.80 in1009.1 mb - 0.00 in0.0 mm 0.02 in0.5 mm
11:10 AM 41.9°F5.5°C 33.9°F1.1°C 73% 6.9 mph NW11.1 kmh NW 11.5 mph18.5 kmh 29.80 in1009.1 mb - 0.00 in0.0 mm 0.02 in0.5 mm
11:20 AM 42.4°F5.8°C 33.7°F0.9°C 71% 5.8 mph NW9.3 kmh NW 8.1 mph13.0 kmh 29.80 in1009.1 mb - 0.00 in0.0 mm 0.02 in0.5 mm
11:30 AM 42.9°F6.1°C 33.4°F0.8°C 69% 3.5 mph S5.6 kmh S 9.2 mph14.8 kmh 29.80 in1009.1 mb - 0.00 in0.0 mm 0.02 in0.5 mm
11:40 AM 42.9°F6.1°C 32.7°F0.4°C 67% 4.6 mph NW7.4 kmh NW 9.2 mph14.8 kmh 29.80 in1009.1 mb - 0.00 in0.0 mm 0.02 in0.5 mm
11:50 AM 43.4°F6.3°C 31.2°F-0.4°C 62% 5.8 mph W9.3 kmh W 15.0 mph24.1 kmh 29.80 in1009.1 mb - 0.00 in0.0 mm 0.02 in0.5 mm
12:00 PM 43.3°F6.3°C 30.7°F-0.7°C 61% 6.9 mph SW11.1 kmh SW 6.9 mph11.1 kmh 29.81 in1009.5 mb - 0.00 in0.0 mm 0.02 in0.5 mm
12:10 PM 43.6°F6.4°C 31.8°F-0.1°C 63% 4.6 mph W7.4 kmh W 10.4 mph16.7 kmh 29.81 in1009.5 mb - 0.00 in0.0 mm 0.02 in0.5 mm
12:20 PM 43.6°F6.4°C 31.4°F-0.3°C 62% 4.6 mph W7.4 kmh W 3.5 mph5.6 kmh 29.81 in1009.5 mb - 0.00 in0.0 mm 0.02 in0.5 mm
12:30 PM 44.2°F6.8°C 32.0°F0.0°C 62% 6.9 mph W11.1 kmh W 16.1 mph25.9 kmh 29.81 in1009.5 mb - 0.00 in0.0 mm 0.02 in0.5 mm
12:40 PM 44.0°F6.7°C 31.8°F-0.1°C 62% 6.9 mph W11.1 kmh W 8.1 mph13.0 kmh 29.82 in1009.8 mb - 0.00 in0.0 mm 0.02 in0.5 mm
12:50 PM 43.8°F6.6°C 32.0°F0.0°C 63% 3.5 mph ENE5.6 kmh ENE 5.8 mph9.3 kmh 29.83 in1010.2 mb - 0.00 in0.0 mm 0.02 in0.5 mm
01:00 PM 43.9°F6.6°C 32.1°F0.1°C 63% 2.3 mph WNW3.7 kmh WNW 5.8 mph9.3 kmh 29.83 in1010.2 mb - 0.00 in0.0 mm 0.02 in0.5 mm
01:10 PM 44.2°F6.8°C 32.0°F0.0°C 62% 4.6 mph SW7.4 kmh SW 16.1 mph25.9 kmh 29.83 in1010.2 mb - 0.00 in0.0 mm 0.02 in0.5 mm
01:20 PM 44.2°F6.8°C 32.0°F0.0°C 62% 4.6 mph W7.4 kmh W 2.3 mph3.7 kmh 29.84 in1010.5 mb - 0.00 in0.0 mm 0.02 in0.5 mm
01:30 PM 45.1°F7.3°C 32.4°F0.2°C 61% 4.6 mph SW7.4 kmh SW 9.2 mph14.8 kmh 29.84 in1010.5 mb - 0.00 in0.0 mm 0.02 in0.5 mm
01:40 PM 45.7°F7.6°C 32.2°F0.1°C 59% 5.8 mph WNW9.3 kmh WNW 9.2 mph14.8 kmh 29.84 in1010.5 mb - 0.00 in0.0 mm 0.02 in0.5 mm
01:50 PM 46.2°F7.9°C 32.3°F0.2°C 58% 6.9 mph NW11.1 kmh NW 6.9 mph11.1 kmh 29.85 in1010.8 mb - 0.00 in0.0 mm 0.02 in0.5 mm
02:00 PM 46.4°F8.0°C 31.1°F-0.5°C 55% 5.8 mph N9.3 kmh N 8.1 mph13.0 kmh 29.84 in1010.5 mb - 0.00 in0.0 mm 0.02 in0.5 mm
02:10 PM 45.6°F7.6°C 32.1°F0.1°C 59% 6.9 mph WSW11.1 kmh WSW 8.1 mph13.0 kmh 29.84 in1010.5 mb - 0.00 in0.0 mm 0.02 in0.5 mm
02:20 PM 46.3°F7.9°C 31.5°F-0.3°C 56% 4.6 mph W7.4 kmh W 3.5 mph5.6 kmh 29.84 in1010.5 mb - 0.00 in0.0 mm 0.02 in0.5 mm
02:30 PM 45.9°F7.7°C 31.5°F-0.3°C 57% 3.5 mph WSW5.6 kmh WSW 2.3 mph3.7 kmh 29.85 in1010.8 mb - 0.00 in0.0 mm 0.02 in0.5 mm
02:40 PM 48.0°F8.9°C 32.2°F0.1°C 54% 6.9 mph N11.1 kmh N 8.1 mph13.0 kmh 29.85 in1010.8 mb - 0.00 in0.0 mm 0.02 in0.5 mm
02:50 PM 47.6°F8.7°C 32.2°F0.1°C 55% 4.6 mph WSW7.4 kmh WSW 9.2 mph14.8 kmh 29.86 in1011.2 mb - 0.00 in0.0 mm 0.02 in0.5 mm
03:00 PM 48.2°F9.0°C 30.9°F-0.6°C 51% 6.9 mph WSW11.1 kmh WSW 16.1 mph25.9 kmh 29.86 in1011.2 mb - 0.00 in0.0 mm 0.02 in0.5 mm
03:10 PM 47.3°F8.5°C 31.5°F-0.3°C 54% 3.5 mph NNW5.6 kmh NNW 9.2 mph14.8 kmh 29.87 in1011.5 mb - 0.00 in0.0 mm 0.02 in0.5 mm
03:20 PM 45.5°F7.5°C 29.9°F-1.2°C 54% 4.6 mph W7.4 kmh W 5.8 mph9.3 kmh 29.87 in1011.5 mb - 0.00 in0.0 mm 0.02 in0.5 mm
03:30 PM 45.5°F7.5°C 29.8°F-1.2°C 54% 8.1 mph NW13.0 kmh NW 13.8 mph22.2 kmh 29.88 in1011.9 mb - 0.00 in0.0 mm 0.02 in0.5 mm
03:40 PM 45.5°F7.5°C 29.8°F-1.2°C 54% 6.9 mph W11.1 kmh W 8.1 mph13.0 kmh 29.88 in1011.9 mb - 0.00 in0.0 mm 0.02 in0.5 mm
03:50 PM 46.1°F7.8°C 30.4°F-0.9°C 54% 4.6 mph NNW7.4 kmh NNW 11.5 mph18.5 kmh 29.90 in1012.5 mb - 0.00 in0.0 mm 0.02 in0.5 mm
04:00 PM 44.7°F7.1°C 29.5°F-1.4°C 55% 3.5 mph SW5.6 kmh SW 2.3 mph3.7 kmh 29.90 in1012.5 mb - 0.00 in0.0 mm 0.02 in0.5 mm
04:10 PM 44.8°F7.1°C 30.1°F-1.1°C 56% 5.8 mph WSW9.3 kmh WSW 6.9 mph11.1 kmh 29.90 in1012.5 mb - 0.00 in0.0 mm 0.02 in0.5 mm
04:20 PM 45.9°F7.7°C 29.7°F-1.3°C 53% 5.8 mph W9.3 kmh W 8.1 mph13.0 kmh 29.90 in1012.5 mb - 0.00 in0.0 mm 0.02 in0.5 mm
04:30 PM 44.9°F7.2°C 28.8°F-1.8°C 53% 9.2 mph WSW14.8 kmh WSW 15.0 mph24.1 kmh 29.92 in1013.2 mb - 0.00 in0.0 mm 0.02 in0.5 mm
04:40 PM 44.7°F7.1°C 28.6°F-1.9°C 53% 8.1 mph WSW13.0 kmh WSW 9.2 mph14.8 kmh 29.92 in1013.2 mb - 0.00 in0.0 mm 0.02 in0.5 mm
04:50 PM 45.2°F7.3°C 29.5°F-1.4°C 54% 2.3 mph W3.7 kmh W 8.1 mph13.0 kmh 29.92 in1013.2 mb - 0.00 in0.0 mm 0.02 in0.5 mm
05:00 PM 44.7°F7.1°C 29.1°F-1.6°C 54% 5.8 mph S9.3 kmh S 11.5 mph18.5 kmh 29.92 in1013.2 mb - 0.00 in0.0 mm 0.02 in0.5 mm
05:10 PM 44.5°F6.9°C 28.4°F-2.0°C 53% 5.8 mph W9.3 kmh W 10.4 mph16.7 kmh 29.92 in1013.2 mb - 0.00 in0.0 mm 0.02 in0.5 mm
05:20 PM 44.1°F6.7°C 28.5°F-1.9°C 54% 3.5 mph WSW5.6 kmh WSW 5.8 mph9.3 kmh 29.92 in1013.2 mb - 0.00 in0.0 mm 0.02 in0.5 mm
05:30 PM 43.5°F6.4°C 27.9°F-2.3°C 54% 5.8 mph WSW9.3 kmh WSW 9.2 mph14.8 kmh 29.93 in1013.5 mb - 0.00 in0.0 mm 0.02 in0.5 mm
05:40 PM 42.8°F6.0°C 27.7°F-2.4°C 55% 5.8 mph N9.3 kmh N 9.2 mph14.8 kmh 29.92 in1013.2 mb - 0.00 in0.0 mm 0.02 in0.5 mm
05:50 PM 42.2°F5.7°C 26.7°F-2.9°C 54% 5.8 mph W9.3 kmh W 10.4 mph16.7 kmh 29.92 in1013.2 mb - 0.00 in0.0 mm 0.02 in0.5 mm
06:00 PM 41.7°F5.4°C 27.5°F-2.5°C 57% 3.5 mph WSW5.6 kmh WSW 5.8 mph9.3 kmh 29.92 in1013.2 mb - 0.00 in0.0 mm 0.02 in0.5 mm
06:10 PM 41.0°F5.0°C 27.8°F-2.3°C 59% 1.2 mph WNW1.9 kmh WNW 2.3 mph3.7 kmh 29.93 in1013.5 mb - 0.00 in0.0 mm 0.02 in0.5 mm
06:20 PM 40.4°F4.7°C 28.0°F-2.2°C 61% 2.3 mph WSW3.7 kmh WSW 2.3 mph3.7 kmh 29.94 in1013.9 mb - 0.00 in0.0 mm 0.02 in0.5 mm
06:30 PM 39.7°F4.3°C 28.2°F-2.1°C 63% 4.6 mph N7.4 kmh N 2.3 mph3.7 kmh 29.94 in1013.9 mb - 0.00 in0.0 mm 0.02 in0.5 mm
06:40 PM 39.3°F4.1°C 28.5°F-1.9°C 65% 3.5 mph NW5.6 kmh NW 2.3 mph3.7 kmh 29.95 in1014.2 mb - 0.00 in0.0 mm 0.02 in0.5 mm
06:50 PM 38.9°F3.8°C 28.8°F-1.8°C 67% 1.2 mph NNW1.9 kmh NNW 2.3 mph3.7 kmh 29.96 in1014.6 mb - 0.00 in0.0 mm 0.02 in0.5 mm
07:00 PM 38.3°F3.5°C 28.6°F-1.9°C 68% 3.5 mph NNW5.6 kmh NNW 2.3 mph3.7 kmh 29.96 in1014.6 mb - 0.00 in0.0 mm 0.02 in0.5 mm
07:10 PM 37.9°F3.3°C 28.2°F-2.1°C 68% 2.3 mph SE3.7 kmh SE 2.3 mph3.7 kmh 29.97 in1014.9 mb - 0.00 in0.0 mm 0.02 in0.5 mm
07:20 PM 37.5°F3.1°C 28.2°F-2.1°C 69% 2.3 mph NNW3.7 kmh NNW 2.3 mph3.7 kmh 29.97 in1014.9 mb - 0.00 in0.0 mm 0.02 in0.5 mm
07:30 PM 36.9°F2.7°C 28.0°F-2.2°C 70% 2.3 mph WNW3.7 kmh WNW 3.5 mph5.6 kmh 29.97 in1014.9 mb - 0.00 in0.0 mm 0.02 in0.5 mm
07:40 PM 36.4°F2.4°C 28.6°F-1.9°C 73% Calm Calm -- 29.98 in1015.2 mb - 0.00 in0.0 mm 0.02 in0.5 mm
07:50 PM 36.2°F2.3°C 28.0°F-2.2°C 72% 1.2 mph NE1.9 kmh NE 2.3 mph3.7 kmh 29.98 in1015.2 mb - 0.00 in0.0 mm 0.02 in0.5 mm
08:00 PM 36.5°F2.5°C 28.0°F-2.2°C 71% 2.3 mph SW3.7 kmh SW 3.5 mph5.6 kmh 29.98 in1015.2 mb - 0.00 in0.0 mm 0.02 in0.5 mm
08:10 PM 36.3°F2.4°C 28.1°F-2.2°C 72% Calm Calm 1.2 mph1.9 kmh 29.99 in1015.6 mb - 0.00 in0.0 mm 0.02 in0.5 mm
08:20 PM 35.9°F2.2°C 27.7°F-2.4°C 72% 4.6 mph NNW7.4 kmh NNW 9.2 mph14.8 kmh 29.99 in1015.6 mb - 0.00 in0.0 mm 0.02 in0.5 mm
08:30 PM 35.7°F2.1°C 27.2°F-2.7°C 71% 4.6 mph SW7.4 kmh SW 5.8 mph9.3 kmh 30.00 in1015.9 mb - 0.00 in0.0 mm 0.02 in0.5 mm
08:40 PM 35.5°F1.9°C 26.0°F-3.3°C 68% 5.8 mph WNW9.3 kmh WNW 8.1 mph13.0 kmh 30.01 in1016.3 mb - 0.00 in0.0 mm 0.02 in0.5 mm
08:50 PM 35.0°F1.7°C 25.5°F-3.6°C 68% 3.5 mph NNE5.6 kmh NNE 6.9 mph11.1 kmh 30.01 in1016.3 mb - 0.00 in0.0 mm 0.02 in0.5 mm
09:00 PM 34.8°F1.6°C 24.9°F-3.9°C 67% 3.5 mph NW5.6 kmh NW 3.5 mph5.6 kmh 30.01 in1016.3 mb - 0.00 in0.0 mm 0.02 in0.5 mm
09:10 PM 34.5°F1.4°C 24.3°F-4.3°C 66% 1.2 mph NW1.9 kmh NW 3.5 mph5.6 kmh 30.01 in1016.3 mb - 0.00 in0.0 mm 0.02 in0.5 mm
09:20 PM 34.3°F1.3°C 24.5°F-4.2°C 67% 2.3 mph W3.7 kmh W 8.1 mph13.0 kmh 30.02 in1016.6 mb - 0.00 in0.0 mm 0.02 in0.5 mm
09:30 PM 34.1°F1.2°C 24.2°F-4.3°C 67% 4.6 mph N7.4 kmh N 2.3 mph3.7 kmh 30.01 in1016.3 mb - 0.00 in0.0 mm 0.02 in0.5 mm
09:40 PM 34.0°F1.1°C 24.5°F-4.2°C 68% 3.5 mph ENE5.6 kmh ENE 5.8 mph9.3 kmh 30.02 in1016.6 mb - 0.00 in0.0 mm 0.02 in0.5 mm
09:50 PM 33.8°F1.0°C 24.7°F-4.1°C 69% 1.2 mph SW1.9 kmh SW 2.3 mph3.7 kmh 30.02 in1016.6 mb - 0.00 in0.0 mm 0.02 in0.5 mm
10:00 PM 33.4°F0.8°C 24.0°F-4.4°C 68% 4.6 mph W7.4 kmh W 11.5 mph18.5 kmh 30.02 in1016.6 mb - 0.00 in0.0 mm 0.02 in0.5 mm
10:10 PM 33.6°F0.9°C 23.8°F-4.6°C 67% 3.5 mph NW5.6 kmh NW 6.9 mph11.1 kmh 30.02 in1016.6 mb - 0.00 in0.0 mm 0.02 in0.5 mm
10:20 PM 33.5°F0.8°C 24.1°F-4.4°C 68% 2.3 mph N3.7 kmh N 2.3 mph3.7 kmh 30.03 in1016.9 mb - 0.00 in0.0 mm 0.02 in0.5 mm
10:30 PM 33.2°F0.7°C 24.1°F-4.4°C 69% 3.5 mph NW5.6 kmh NW 5.8 mph9.3 kmh 30.03 in1016.9 mb - 0.00 in0.0 mm 0.02 in0.5 mm
10:40 PM 32.8°F0.4°C 23.4°F-4.8°C 68% 2.3 mph NW3.7 kmh NW 3.5 mph5.6 kmh 30.04 in1017.3 mb - 0.00 in0.0 mm 0.02 in0.5 mm
10:50 PM 32.7°F0.4°C 23.2°F-4.9°C 68% 2.3 mph WSW3.7 kmh WSW 2.3 mph3.7 kmh 30.04 in1017.3 mb - 0.00 in0.0 mm 0.02 in0.5 mm
11:00 PM 32.4°F0.2°C 23.4°F-4.8°C 69% Calm Calm 2.3 mph3.7 kmh 30.04 in1017.3 mb - 0.00 in0.0 mm 0.13 in3.3 mm
11:10 PM 32.3°F0.2°C 23.3°F-4.8°C 69% 1.2 mph SW1.9 kmh SW 2.3 mph3.7 kmh 30.05 in1017.6 mb - 0.00 in0.0 mm 0.13 in3.3 mm
11:20 PM 32.2°F0.1°C 23.5°F-4.7°C 70% 2.3 mph SE3.7 kmh SE 2.3 mph3.7 kmh 30.05 in1017.6 mb - 0.00 in0.0 mm 0.13 in3.3 mm
11:30 PM 32.2°F0.1°C 23.2°F-4.9°C 69% 2.3 mph NW3.7 kmh NW 2.3 mph3.7 kmh 30.05 in1017.6 mb - 0.00 in0.0 mm 0.13 in3.3 mm
11:40 PM 31.9°F-0.1°C 22.9°F-5.1°C 69% 2.3 mph WSW3.7 kmh WSW 2.3 mph3.7 kmh 30.05 in1017.6 mb - 0.00 in0.0 mm 0.13 in3.3 mm
11:50 PM 31.9°F-0.1°C 22.9°F-5.1°C 69% 2.3 mph NW3.7 kmh NW 5.8 mph9.3 kmh 30.05 in1017.6 mb - 0.00 in0.0 mm 0.13 in3.3 mm